createdAt,value
2022-08-16T00:01:24.740Z,10.40
2022-08-16T00:03:54.588Z,9.70
2022-08-16T00:06:21.767Z,12.05
2022-08-16T00:08:49.971Z,9.38
2022-08-16T00:11:17.404Z,10.75
2022-08-16T00:13:53.618Z,8.40
2022-08-16T00:17:01.350Z,10.75
2022-08-16T00:19:13.750Z,12.35
2022-08-16T00:21:42.508Z,10.50
2022-08-16T00:24:12.108Z,9.98
2022-08-16T00:26:45.298Z,7.18
2022-08-16T00:31:59.002Z,10.65
2022-08-16T00:34:43.516Z,12.35
2022-08-16T00:37:16.923Z,11.82
2022-08-16T00:39:47.072Z,6.65
2022-08-16T00:42:30.358Z,11.82
2022-08-16T00:45:35.859Z,7.68
2022-08-16T00:48:30.731Z,8.13
2022-08-16T00:53:24.455Z,10.60
2022-08-16T00:55:54.810Z,5.32
2022-08-16T00:58:34.630Z,7.30
2022-08-16T01:01:08.664Z,9.68
2022-08-16T01:03:41.520Z,9.80
2022-08-16T01:06:40.379Z,11.85
2022-08-16T01:09:00.970Z,10.13
2022-08-16T01:11:29.492Z,7.82
2022-08-16T01:14:05.480Z,10.27
2022-08-16T01:16:32.459Z,10.35
2022-08-16T01:19:23.817Z,9.77
2022-08-16T01:21:58.098Z,7.25
2022-08-16T01:24:55.400Z,7.55
2022-08-16T01:27:34.850Z,7.45
2022-08-16T01:30:20.205Z,9.88
2022-08-16T01:33:01.224Z,5.93
2022-08-16T01:35:47.771Z,10.27
2022-08-16T01:38:25.857Z,8.52
2022-08-16T01:41:07.232Z,6.07
2022-08-16T01:43:36.339Z,7.72
2022-08-16T01:46:29.887Z,6.75
2022-08-16T01:49:05.192Z,8.85
2022-08-16T01:51:32.940Z,8.40
2022-08-16T01:54:00.360Z,8.23
2022-08-16T01:56:39.436Z,6.00
2022-08-16T01:59:15.655Z,6.28
2022-08-16T02:01:49.733Z,7.45
2022-08-16T02:04:40.100Z,6.78
2022-08-16T02:07:11.441Z,7.97
2022-08-16T02:09:39.958Z,6.95
2022-08-16T02:12:50.626Z,7.72
2022-08-16T02:14:57.027Z,11.60
2022-08-16T02:17:28.408Z,9.18
2022-08-16T02:19:58.898Z,9.48
2022-08-16T02:22:35.126Z,8.13
2022-08-16T02:25:08.323Z,11.10
2022-08-16T02:27:41.423Z,9.00
2022-08-16T02:30:36.879Z,11.10
2022-08-16T02:33:03.368Z,10.48
2022-08-16T02:35:31.518Z,8.68
2022-08-16T02:38:08.576Z,7.68
2022-08-16T02:40:39.491Z,7.18
2022-08-16T02:43:10.153Z,6.53
2022-08-16T02:45:38.811Z,8.38
2022-08-16T02:48:29.530Z,6.75
2022-08-16T02:51:08.055Z,9.30
2022-08-16T02:53:43.750Z,11.18
2022-08-16T02:56:14.542Z,5.95
2022-08-16T02:58:49.179Z,11.05
2022-08-16T03:01:25.407Z,10.57
2022-08-16T03:04:39.564Z,12.45
2022-08-16T03:07:00.143Z,8.82
2022-08-16T03:09:40.911Z,13.00
2022-08-16T03:12:16.514Z,8.95
2022-08-16T03:14:47.136Z,15.60
2022-08-16T03:17:16.672Z,7.93
2022-08-16T03:19:48.657Z,10.00
2022-08-16T03:22:29.119Z,7.53
2022-08-16T03:25:02.807Z,10.38
2022-08-16T03:27:32.974Z,11.25
2022-08-16T03:30:17.274Z,8.73
2022-08-16T03:33:00.740Z,6.80
2022-08-16T03:35:35.444Z,9.73
2022-08-16T03:38:33.481Z,14.10
2022-08-16T03:41:25.501Z,8.90
2022-08-16T03:44:00.952Z,10.73
2022-08-16T03:46:47.679Z,7.82
2022-08-16T03:49:35.801Z,6.78
2022-08-16T03:52:07.050Z,9.02
2022-08-16T03:54:35.922Z,9.73
2022-08-16T03:57:05.183Z,9.35
2022-08-16T03:59:33.473Z,9.10
2022-08-16T04:02:12.263Z,14.38
2022-08-16T04:04:51.426Z,10.13
2022-08-16T04:07:18.374Z,11.30
2022-08-16T04:09:47.020Z,7.85
2022-08-16T04:12:54.511Z,9.18
2022-08-16T04:15:02.757Z,7.88
2022-08-16T04:20:08.036Z,10.20
2022-08-16T04:22:55.987Z,9.25
2022-08-16T04:25:24.500Z,12.27
2022-08-16T04:27:54.178Z,12.77
2022-08-16T04:30:34.857Z,16.20
2022-08-16T04:33:04.516Z,11.57
2022-08-16T04:35:35.761Z,18.23
2022-08-16T04:40:52.051Z,14.45
2022-08-16T04:43:21.132Z,12.43
2022-08-16T04:45:59.924Z,13.15
2022-08-16T04:48:34.094Z,10.88
2022-08-16T04:51:12.364Z,11.20
2022-08-16T04:53:48.060Z,9.60
2022-08-16T04:56:18.557Z,16.63
2022-08-16T04:58:47.116Z,14.98
2022-08-16T05:01:18.272Z,11.35
2022-08-16T05:04:01.031Z,13.90
2022-08-16T05:06:45.200Z,13.43
2022-08-16T05:09:24.095Z,14.20
2022-08-16T05:11:57.271Z,13.95
2022-08-16T05:14:45.636Z,12.52
2022-08-16T05:17:24.598Z,11.13
2022-08-16T05:19:57.624Z,10.93
2022-08-16T05:22:39.162Z,12.07
2022-08-16T05:25:09.409Z,14.45
2022-08-16T05:27:43.110Z,15.25
2022-08-16T05:30:34.719Z,11.93
2022-08-16T05:33:05.994Z,9.93
2022-08-16T05:35:36.300Z,13.45
2022-08-16T05:38:32.866Z,8.15
2022-08-16T05:41:02.343Z,11.38
2022-08-16T05:43:43.715Z,11.07
2022-08-16T05:46:29.923Z,6.95
2022-08-16T05:49:09.539Z,16.48
2022-08-16T05:51:46.038Z,9.77
2022-08-16T05:54:24.731Z,10.45
2022-08-16T05:56:56.072Z,11.10
2022-08-16T05:59:24.447Z,14.60
2022-08-16T06:01:54.921Z,9.30
2022-08-16T06:04:36.374Z,9.68
2022-08-16T06:07:24.640Z,12.98
2022-08-16T06:10:01.636Z,9.27
2022-08-16T06:12:32.456Z,10.95
2022-08-16T06:15:10.637Z,8.45
2022-08-16T06:17:44.173Z,11.35
2022-08-16T06:20:23.691Z,9.38
2022-08-16T06:23:03.504Z,13.40
2022-08-16T06:25:53.107Z,15.57
2022-08-16T06:28:36.649Z,7.63
2022-08-16T06:31:13.516Z,6.10
2022-08-16T06:33:45.200Z,10.65
2022-08-16T06:36:16.391Z,7.72
2022-08-16T06:38:56.281Z,7.95
2022-08-16T06:41:39.930Z,9.30
2022-08-16T06:44:21.476Z,9.57
2022-08-16T06:46:54.813Z,7.90
2022-08-16T06:49:23.546Z,11.70
2022-08-16T06:51:50.455Z,9.43
2022-08-16T06:54:25.190Z,11.27
2022-08-16T06:56:54.109Z,10.68
2022-08-16T06:59:25.988Z,11.25
2022-08-16T07:01:58.283Z,7.18
2022-08-16T07:04:33.380Z,8.50
2022-08-16T07:07:14.356Z,7.22
2022-08-16T07:09:43.092Z,10.52
2022-08-16T07:12:09.831Z,7.70
2022-08-16T07:14:41.807Z,12.43
2022-08-16T07:17:12.810Z,12.35
2022-08-16T07:20:03.355Z,9.68
2022-08-16T07:22:52.416Z,12.25
2022-08-16T07:25:24.608Z,9.27
2022-08-16T07:27:51.809Z,11.35
2022-08-16T07:30:39.469Z,13.35
2022-08-16T07:33:17.175Z,9.38
2022-08-16T07:35:59.077Z,10.32
2022-08-16T07:38:33.676Z,11.50
2022-08-16T07:41:10.302Z,8.88
2022-08-16T07:43:43.421Z,17.70
2022-08-16T07:46:39.144Z,10.00
2022-08-16T07:49:05.568Z,12.63
2022-08-16T07:51:41.120Z,14.18
2022-08-16T07:54:17.008Z,9.48
2022-08-16T07:56:54.595Z,11.63
2022-08-16T07:59:24.579Z,12.55
2022-08-16T08:01:54.942Z,14.98
2022-08-16T08:04:26.486Z,11.55
2022-08-16T08:06:59.950Z,14.02
2022-08-16T08:09:27.145Z,12.52
2022-08-16T08:12:00.009Z,13.85
2022-08-16T08:14:36.698Z,11.80
2022-08-16T08:17:08.623Z,15.95
2022-08-16T08:19:37.313Z,15.55
2022-08-16T08:22:10.166Z,18.13
2022-08-16T08:24:53.388Z,10.43
2022-08-16T08:27:26.962Z,14.23
2022-08-16T08:30:50.309Z,9.77
2022-08-16T08:33:00.245Z,14.13
2022-08-16T08:35:33.405Z,10.80
2022-08-16T08:38:02.358Z,15.20
2022-08-16T08:40:31.778Z,12.55
2022-08-16T08:43:11.699Z,17.33
2022-08-16T08:45:52.817Z,10.15
2022-08-16T08:48:32.766Z,10.60
2022-08-16T08:51:08.936Z,9.75
2022-08-16T08:53:57.945Z,10.85
2022-08-16T08:56:32.384Z,8.82
2022-08-16T08:59:27.776Z,10.45
2022-08-16T09:01:58.044Z,14.32
2022-08-16T09:04:35.636Z,13.23
2022-08-16T09:07:05.706Z,14.95
2022-08-16T09:09:37.742Z,15.52
2022-08-16T09:12:35.761Z,11.27
2022-08-16T09:15:05.695Z,8.25
2022-08-16T09:17:51.902Z,12.13
2022-08-16T09:20:23.411Z,13.02
2022-08-16T09:22:51.263Z,9.68
2022-08-16T09:25:26.442Z,14.30
2022-08-16T09:28:09.958Z,18.58
2022-08-16T09:30:45.021Z,19.13
2022-08-16T09:33:19.854Z,15.57
2022-08-16T09:35:53.863Z,11.10
2022-08-16T09:38:31.811Z,10.80
2022-08-16T09:41:00.266Z,10.20
2022-08-16T09:44:00.174Z,11.13
2022-08-16T09:46:44.640Z,16.83
2022-08-16T09:49:03.644Z,11.32
2022-08-16T09:51:36.780Z,8.38
2022-08-16T09:54:09.689Z,13.02
2022-08-16T09:56:38.502Z,14.00
2022-08-16T09:59:10.092Z,16.95
2022-08-16T10:01:38.574Z,11.95
2022-08-16T10:04:31.278Z,8.52
2022-08-16T10:09:42.269Z,10.25
2022-08-16T10:12:31.415Z,14.30
2022-08-16T10:15:00.747Z,13.10
2022-08-16T10:17:28.891Z,9.68
2022-08-16T10:19:56.464Z,7.10
2022-08-16T10:22:23.293Z,10.18
2022-08-16T10:24:59.680Z,7.30
2022-08-16T10:27:29.831Z,11.32
2022-08-16T10:30:25.547Z,11.73
2022-08-16T10:32:55.024Z,10.50
2022-08-16T10:35:22.752Z,7.40
2022-08-16T10:37:52.187Z,9.93
2022-08-16T10:40:29.543Z,9.13
2022-08-16T10:42:59.896Z,8.13
2022-08-16T10:45:27.925Z,6.65
2022-08-16T10:48:03.302Z,9.57
2022-08-16T10:50:32.445Z,12.02
2022-08-16T10:53:00.445Z,8.90
2022-08-16T10:55:40.863Z,9.90
2022-08-16T10:58:17.103Z,12.20
2022-08-16T11:06:06.446Z,8.45
2022-08-16T11:08:41.957Z,7.90
2022-08-16T11:11:19.546Z,10.93
2022-08-16T11:14:11.169Z,8.50
2022-08-16T11:19:22.935Z,12.13
2022-08-16T11:24:43.202Z,6.85
2022-08-16T11:27:23.191Z,8.50
2022-08-16T11:29:55.383Z,5.78
2022-08-16T11:32:31.168Z,11.00
2022-08-16T11:35:13.571Z,10.65
2022-08-16T11:38:47.266Z,9.15
2022-08-16T11:40:56.657Z,10.35
2022-08-16T11:43:32.058Z,8.52
2022-08-16T11:46:45.672Z,10.63
2022-08-16T11:48:52.387Z,6.93
2022-08-16T11:51:19.702Z,9.85
2022-08-16T11:53:46.355Z,8.98
2022-08-16T11:56:14.854Z,8.02
2022-08-16T11:58:41.919Z,8.48
2022-08-16T12:01:10.639Z,9.93
2022-08-16T12:03:38.128Z,40.33
2022-08-16T12:06:30.415Z,12.20
2022-08-16T12:09:00.999Z,7.80
2022-08-16T12:11:31.337Z,10.77
2022-08-16T12:14:00.392Z,5.68
2022-08-16T12:16:31.203Z,9.48
2022-08-16T12:19:06.607Z,8.77
2022-08-16T12:21:59.406Z,10.07
2022-08-16T12:24:26.834Z,8.02
2022-08-16T12:26:54.994Z,15.70
2022-08-16T12:29:22.467Z,11.95
2022-08-16T12:31:59.076Z,6.70
2022-08-16T12:34:29.573Z,8.73
2022-08-16T12:36:58.296Z,7.22
2022-08-16T12:39:29.013Z,10.95
2022-08-16T12:41:57.644Z,16.33
2022-08-16T12:44:26.509Z,10.73
2022-08-16T12:47:17.938Z,9.85
2022-08-16T12:49:45.257Z,16.63
2022-08-16T12:52:33.430Z,13.00
2022-08-16T12:55:01.833Z,8.00
2022-08-16T12:57:36.703Z,6.60
2022-08-16T13:00:12.917Z,6.32
2022-08-16T13:02:54.262Z,5.80
2022-08-16T13:05:21.152Z,8.35
2022-08-16T13:07:51.468Z,12.57
2022-08-16T13:10:37.319Z,10.90
2022-08-16T13:13:08.871Z,8.45
2022-08-16T13:15:55.850Z,10.15
2022-08-16T13:18:34.067Z,7.22
2022-08-16T13:21:07.626Z,13.43
2022-08-16T13:26:10.695Z,8.55
2022-08-16T13:28:38.035Z,9.90
2022-08-16T13:31:05.488Z,10.50
2022-08-16T13:33:37.286Z,8.32
2022-08-16T13:36:17.093Z,8.63
2022-08-16T13:38:56.189Z,8.55
2022-08-16T13:41:23.960Z,6.68
2022-08-16T13:43:57.459Z,10.55
2022-08-16T13:46:25.596Z,6.88
2022-08-16T13:48:53.533Z,8.52
2022-08-16T13:51:23.636Z,15.27
2022-08-16T13:54:02.897Z,7.93
2022-08-16T13:56:37.953Z,8.95
2022-08-16T13:59:20.476Z,9.77
2022-08-16T14:01:55.966Z,7.10
2022-08-16T14:04:35.373Z,5.63
2022-08-16T14:07:06.092Z,11.43
2022-08-16T14:09:35.073Z,6.10
2022-08-16T14:12:04.273Z,4.97
2022-08-16T14:14:36.984Z,4.68
2022-08-16T14:17:04.597Z,8.23
2022-08-16T14:19:31.540Z,7.03
2022-08-16T14:22:14.415Z,6.97
2022-08-16T14:24:46.826Z,10.10
2022-08-16T14:27:18.292Z,7.72
2022-08-16T14:29:49.370Z,19.85
2022-08-16T14:32:32.853Z,14.90
2022-08-16T14:35:07.455Z,8.73
2022-08-16T14:37:35.251Z,7.05
2022-08-16T14:40:04.383Z,5.38
2022-08-16T14:42:32.094Z,4.03
2022-08-16T14:45:00.381Z,5.53
2022-08-16T14:47:31.499Z,10.07
2022-08-16T14:50:01.657Z,9.27
2022-08-16T14:52:54.217Z,12.27
2022-08-16T14:55:16.113Z,10.32
2022-08-16T14:57:43.756Z,8.68
2022-08-16T15:00:13.294Z,7.55
2022-08-16T15:02:42.734Z,8.70
2022-08-16T15:05:11.471Z,8.00
2022-08-16T15:07:40.129Z,11.57
2022-08-16T15:10:08.630Z,8.98
2022-08-16T15:12:50.062Z,4.47
2022-08-16T15:15:21.867Z,7.70
2022-08-16T15:17:56.212Z,8.15
2022-08-16T15:20:26.890Z,9.80
2022-08-16T15:22:58.028Z,8.45
2022-08-16T15:25:31.651Z,19.35
2022-08-16T15:28:02.468Z,8.45
2022-08-16T15:30:57.712Z,7.25
2022-08-16T15:33:25.337Z,6.20
2022-08-16T15:35:55.166Z,11.98
2022-08-16T15:38:58.147Z,9.50
2022-08-16T15:41:38.169Z,9.05
2022-08-16T15:44:21.138Z,9.93
2022-08-16T15:46:54.700Z,9.88
2022-08-16T15:49:34.928Z,9.77
2022-08-16T15:52:11.615Z,7.97
2022-08-16T15:54:52.340Z,11.02
2022-08-16T15:57:20.161Z,6.93
2022-08-16T15:59:52.688Z,13.73
2022-08-16T16:02:29.227Z,13.38
2022-08-16T16:05:07.198Z,9.25
2022-08-16T16:07:37.624Z,7.40
2022-08-16T16:10:12.910Z,9.10
2022-08-16T16:12:53.257Z,7.18
2022-08-16T16:15:29.582Z,14.02
2022-08-16T16:17:57.604Z,9.25
2022-08-16T16:20:27.482Z,5.07
2022-08-16T16:23:03.153Z,12.02
2022-08-16T16:25:31.053Z,8.05
2022-08-16T16:28:00.685Z,9.93
2022-08-16T16:30:37.926Z,7.30
2022-08-16T16:33:15.825Z,6.57
2022-08-16T16:35:47.896Z,7.13
2022-08-16T16:38:23.916Z,10.38
2022-08-16T16:40:54.317Z,9.40
2022-08-16T16:43:25.518Z,7.40
2022-08-16T16:45:52.975Z,13.20
2022-08-16T16:48:20.371Z,8.73
2022-08-16T16:50:47.831Z,8.00
2022-08-16T16:53:18.123Z,8.15
2022-08-16T16:55:52.563Z,8.40
2022-08-16T16:58:40.507Z,8.10
2022-08-16T17:01:10.506Z,7.97
2022-08-16T17:03:38.537Z,4.60
2022-08-16T17:06:09.341Z,8.52
2022-08-16T17:08:40.808Z,10.25
2022-08-16T17:11:09.776Z,9.80
2022-08-16T17:13:38.789Z,7.45
2022-08-16T17:16:05.911Z,12.70
2022-08-16T17:19:15.445Z,7.40
2022-08-16T17:21:24.037Z,6.75
2022-08-16T17:23:59.090Z,12.95
2022-08-16T17:26:30.076Z,12.02
2022-08-16T17:29:02.582Z,9.40
2022-08-16T17:31:40.991Z,6.75
2022-08-16T17:37:00.646Z,11.57
2022-08-16T17:39:28.400Z,6.97
2022-08-16T17:39:53.409Z,9.23
2022-08-16T17:42:23.015Z,7.55
2022-08-16T17:44:54.915Z,8.70
2022-08-16T17:47:22.351Z,11.18
2022-08-16T17:49:49.930Z,14.88
2022-08-16T17:52:17.314Z,18.80
2022-08-16T17:54:44.857Z,12.30
2022-08-16T17:57:12.311Z,14.20
2022-08-16T17:59:41.345Z,12.43
2022-08-16T18:02:42.736Z,12.70
2022-08-16T18:04:57.272Z,8.52
2022-08-16T18:07:23.952Z,7.38
2022-08-16T18:09:52.396Z,10.60
2022-08-16T18:12:50.732Z,8.15
2022-08-16T18:15:13.849Z,9.00
2022-08-16T18:17:41.775Z,9.90
2022-08-16T18:20:33.580Z,8.63
2022-08-16T18:23:07.704Z,10.80
2022-08-16T18:25:36.501Z,16.60
2022-08-16T18:28:03.560Z,25.15
2022-08-16T18:30:30.260Z,22.80
2022-08-16T18:32:57.073Z,19.05
2022-08-16T18:35:24.146Z,22.65
2022-08-16T18:37:51.261Z,16.90
2022-08-16T18:40:19.203Z,19.35
2022-08-16T18:42:54.882Z,15.20
2022-08-16T18:45:22.735Z,13.80
2022-08-16T18:47:49.679Z,11.52
2022-08-16T18:50:17.560Z,13.23
2022-08-16T18:52:51.694Z,10.65
2022-08-16T18:55:20.122Z,11.75
2022-08-16T18:57:47.473Z,14.55
2022-08-16T19:00:15.903Z,15.80
2022-08-16T19:02:58.661Z,10.02
2022-08-16T19:05:29.371Z,9.57
2022-08-16T19:07:56.240Z,7.72
2022-08-16T19:10:23.407Z,15.80
2022-08-16T19:12:50.516Z,9.48
2022-08-16T19:15:21.830Z,8.25
2022-08-16T19:17:49.079Z,8.02
2022-08-16T19:20:18.331Z,7.68
2022-08-16T19:23:04.470Z,9.27
2022-08-16T19:25:47.327Z,8.20
2022-08-16T19:28:49.687Z,6.55
2022-08-16T19:31:27.438Z,13.88
2022-08-16T19:33:56.434Z,11.25
2022-08-16T19:36:35.735Z,12.18
2022-08-16T19:39:08.921Z,9.15
2022-08-16T19:41:40.246Z,12.82
2022-08-16T19:44:07.701Z,6.70
2022-08-16T19:46:35.418Z,11.32
2022-08-16T19:49:02.511Z,14.48
2022-08-16T19:51:29.612Z,8.98
2022-08-16T19:53:56.392Z,12.10
2022-08-16T19:56:25.486Z,11.45
2022-08-16T19:59:17.539Z,10.50
2022-08-16T20:01:42.337Z,12.23
2022-08-16T20:04:12.059Z,10.45
2022-08-16T20:06:40.185Z,13.98
2022-08-16T20:09:07.238Z,11.10
2022-08-16T20:11:35.248Z,15.98
2022-08-16T20:14:02.904Z,13.13
2022-08-16T20:16:30.065Z,14.48
2022-08-16T20:18:57.285Z,11.18
2022-08-16T20:21:24.289Z,14.90
2022-08-16T20:23:51.416Z,14.88
2022-08-16T20:26:18.676Z,12.25
2022-08-16T20:28:53.552Z,17.20
2022-08-16T20:31:21.977Z,14.57
2022-08-16T20:33:49.320Z,6.25
2022-08-16T20:36:16.821Z,12.00
2022-08-16T20:38:46.711Z,11.82
2022-08-16T20:41:13.627Z,11.40
2022-08-16T20:43:40.648Z,16.50
2022-08-16T20:46:07.640Z,19.38
2022-08-16T20:48:34.534Z,13.20
2022-08-16T20:51:01.287Z,16.73
2022-08-16T20:53:28.631Z,15.57
2022-08-16T20:55:56.085Z,11.25
2022-08-16T20:58:23.075Z,17.55
2022-08-16T21:00:50.026Z,25.17
2022-08-16T21:03:17.409Z,10.70
2022-08-16T21:05:45.196Z,14.80
2022-08-16T21:08:50.905Z,14.63
2022-08-16T21:11:03.442Z,13.23
2022-08-16T21:13:31.559Z,16.10
2022-08-16T21:16:00.292Z,12.55
2022-08-16T21:18:27.730Z,19.48
2022-08-16T21:20:54.545Z,14.38
2022-08-16T21:23:21.877Z,12.25
2022-08-16T21:25:58.029Z,12.05
2022-08-16T21:28:40.689Z,9.48
2022-08-16T21:31:11.576Z,14.68
2022-08-16T21:33:39.337Z,12.82
2022-08-16T21:36:06.401Z,11.65
2022-08-16T21:38:33.369Z,14.75
2022-08-16T21:41:01.850Z,13.38
2022-08-16T21:43:32.210Z,13.10
2022-08-16T21:46:01.285Z,10.60
2022-08-16T21:48:35.195Z,10.13
2022-08-16T21:51:12.402Z,13.40
2022-08-16T21:53:39.944Z,13.48
2022-08-16T21:56:07.840Z,12.95
2022-08-16T21:58:39.562Z,12.18
2022-08-16T22:01:06.672Z,17.60
2022-08-16T22:03:33.705Z,17.08
2022-08-16T22:06:14.085Z,16.25
2022-08-16T22:08:51.079Z,16.67
2022-08-16T22:11:23.729Z,24.40
2022-08-16T22:13:58.594Z,18.33
2022-08-16T22:16:32.709Z,18.75
2022-08-16T22:19:01.216Z,21.35
2022-08-16T22:21:29.197Z,17.30
2022-08-16T22:23:58.620Z,23.70
2022-08-16T22:26:31.977Z,19.98
2022-08-16T22:29:07.192Z,19.95
2022-08-16T22:31:34.772Z,23.52
2022-08-16T22:34:02.473Z,17.73
2022-08-16T22:36:30.996Z,21.70
2022-08-16T22:39:00.256Z,23.38
2022-08-16T22:41:28.428Z,21.35
2022-08-16T22:43:55.665Z,17.45
2022-08-16T22:46:23.157Z,22.90
2022-08-16T22:48:50.850Z,17.77
2022-08-16T22:51:19.796Z,23.58
2022-08-16T22:53:47.063Z,22.98
2022-08-16T22:56:15.817Z,28.50
2022-08-16T22:58:42.993Z,27.92
2022-08-16T23:01:10.414Z,19.73
2022-08-16T23:03:38.445Z,23.52
2022-08-16T23:06:07.329Z,23.80
2022-08-16T23:08:38.932Z,20.42
2022-08-16T23:13:34.605Z,21.25
2022-08-16T23:16:11.245Z,25.67
2022-08-16T23:18:39.455Z,19.15
2022-08-16T23:21:09.845Z,20.92
2022-08-16T23:23:37.853Z,19.08
2022-08-16T23:26:44.813Z,28.00
2022-08-16T23:28:54.366Z,15.77
2022-08-16T23:31:21.242Z,20.05
2022-08-16T23:33:48.253Z,19.77
2022-08-16T23:36:14.994Z,18.73
2022-08-16T23:38:42.833Z,21.33
2022-08-16T23:41:11.829Z,21.45
2022-08-16T23:43:43.717Z,24.92
2022-08-16T23:46:17.458Z,29.88
2022-08-16T23:49:56.105Z,29.75
2022-08-16T23:51:32.155Z,23.80
2022-08-16T23:53:59.843Z,23.88
2022-08-16T23:56:26.841Z,22.63
2022-08-16T23:59:02.483Z,29.10
